Latest Weather Observations for Darwin Harbour

IDD60801

Issued at 8:05 pm CST Friday 24 October 2014 (issued every 30 minutes, with the page automatically refreshed every 10 minutes)

About weather observations | Map of weather stations | Latest weather observations for NT | Other Formats
Station Details ID: 014072 Name: DARWIN NTC AWS Lat: -12.47 Lon: 130.85 Height: 0.0 m
Data from the previous 72 hours. | See also: Recent months for locations in Northern Territory
Date/Time
CST
Temp
°C
App
Temp
°C
Dew
Point
Rel
Hum
%
Delta-T
°C
Wind Press
QNH
hPa
Press
MSL
hPa
Rain
since 9 am
mm
Dir
 
Spd
km/h
Gust
km/h
Spd
kts
Gust
kts
24/08:00pm 30.2 - - - - ENE 9 13 5 7 1010.5 1010.4 -
24/07:30pm 30.9 - - - - NNE 4 9 2 5 1010.1 1010.0 -
24/07:00pm 30.8 - - - - N 7 15 4 8 1009.8 1009.7 -
24/06:30pm 30.8 - - - - NNE 13 22 7 12 1009.5 1009.4 -
24/06:00pm 31.2 - - - - NNE 13 26 7 14 1009.1 1009.0 -
24/05:30pm 31.8 - - - - NE 15 30 8 16 1008.6 1008.5 -
24/05:00pm 31.9 - - - - NNE 19 37 10 20 1008.3 1008.2 -
24/04:30pm 31.8 - - - - NNE 19 35 10 19 1008.4 1008.3 -
24/04:00pm 32.2 - - - - NNE 13 28 7 15 1008.7 1008.6 -
24/03:30pm 31.3 - - - - NNE 20 37 11 20 1008.9 1008.8 -
24/03:00pm 31.1 - - - - N 19 37 10 20 1009.1 1009.0 -
24/02:30pm 30.9 - - - - N 19 32 10 17 1009.5 1009.4 -
24/02:00pm 30.8 - - - - N 17 32 9 17 1010.0 1009.9 -
24/01:30pm 30.1 - - - - NW 19 32 10 17 1010.4 1010.3 -
24/01:00pm 30.2 - - - - NW 17 30 9 16 1010.9 1010.8 -
24/12:30pm 30.2 - - - - W 6 13 3 7 1011.4 1011.3 -
24/12:00pm 32.1 - - - - ESE 11 20 6 11 1011.9 1011.8 -
24/11:30am 30.8 - - - - ESE 7 11 4 6 1012.5 1012.4 -
24/11:00am 30.3 - - - - ESE 15 22 8 12 1013.0 1012.9 -
24/10:30am 30.5 - - - - E 11 20 6 11 1013.5 1013.4 -
24/10:00am 29.9 - - - - E 15 20 8 11 1013.8 1013.7 -
24/09:30am 29.4 - - - - E 11 19 6 10 1013.9 1013.8 -
24/09:00am 28.2 - - - - E 9 13 5 7 1014.1 1014.0 -
24/08:30am 29.1 - - - - ENE 6 11 3 6 1013.9 1013.8 -
24/08:00am 28.3 - - - - ENE 6 9 3 5 1013.4 1013.3 -
24/07:30am 28.0 - - - - NE 4 7 2 4 1013.2 1013.1 -
24/07:00am 27.6 - - - - NNE 4 7 2 4 1013.1 1013.0 -
24/06:30am 27.2 - - - - N 4 6 2 3 1013.1 1013.0 -
24/06:00am 26.8 - - - - NE 4 7 2 4 1012.7 1012.6 -
24/05:30am 26.8 - - - - ENE 4 7 2 4 1012.4 1012.3 -
24/05:00am 26.7 - - - - NE 6 9 3 5 1012.1 1012.0 -
24/04:30am 27.1 - - - - NNE 4 7 2 4 1012.2 1012.1 -
24/04:00am 27.4 - - - - NE 7 11 4 6 1012.1 1012.0 -
24/03:30am 27.6 - - - - ENE 7 13 4 7 1012.0 1011.9 -
24/03:00am 27.7 - - - - E 7 13 4 7 1012.1 1012.0 -
24/02:30am 27.6 - - - - E 7 15 4 8 1012.3 1012.2 -
24/02:00am 28.4 - - - - ENE 6 11 3 6 1012.7 1012.6 -
24/01:30am 28.5 - - - - N 7 15 4 8 1012.7 1012.6 -
24/01:00am 28.6 - - - - NNW 11 19 6 10 1013.0 1012.9 -
24/12:30am 28.4 - - - - NW 9 17 5 9 1013.1 1013.0 -
24/12:00am 28.4 - - - - NW 11 19 6 10 1013.1 1013.0 -
 
Date/Time
CST
Temp
°C
App
Temp
°C
Dew
Point
Rel
Hum
%
Delta-T
°C
Wind Press
QNH
hPa
Press
MSL
hPa
Rain
since 9 am
mm
Dir
 
Spd
km/h
Gust
km/h
Spd
kts
Gust
kts
23/11:30pm 28.6 - - - - WNW 13 22 7 12 1013.4 1013.3 -
23/11:00pm 28.4 - - - - WNW 19 28 10 15 1013.3 1013.2 -
23/10:30pm 28.9 - - - - WNW 26 35 14 19 1013.1 1013.0 -
23/10:00pm 28.9 - - - - NW 15 26 8 14 1012.6 1012.5 -
23/09:30pm 29.3 - - - - NW 11 22 6 12 1012.0 1011.9 -
23/09:00pm 29.9 - - - - NE 6 13 3 7 1011.4 1011.3 -
23/08:30pm 30.3 - - - - NE 6 9 3 5 1010.7 1010.6 -
23/08:00pm 30.8 - - - - NW 4 7 2 4 1010.6 1010.5 -
23/07:30pm 30.4 - - - - NW 6 7 3 4 1010.3 1010.2 -
23/07:00pm 30.8 - - - - NNW 7 15 4 8 1009.9 1009.8 -
23/06:30pm 31.2 - - - - NNW 9 19 5 10 1009.7 1009.6 -
23/06:00pm 32.0 - - - - N 6 17 3 9 1009.3 1009.2 -
23/05:30pm 32.0 - - - - N 13 22 7 12 1008.9 1008.8 -
23/05:00pm 31.6 - - - - NNE 15 28 8 15 1008.5 1008.4 -
23/04:30pm 31.6 - - - - NNE 17 32 9 17 1008.3 1008.2 -
23/04:00pm 31.4 - - - - NNE 15 32 8 17 1008.7 1008.6 -
23/03:30pm 31.9 - - - - N 9 26 5 14 1009.0 1008.9 -
23/03:00pm 32.2 - - - - N 11 26 6 14 1009.4 1009.3 -
23/02:30pm 31.2 - - - - NW 13 28 7 15 1009.9 1009.8 -
23/02:00pm 30.2 - - - - W 13 26 7 14 1010.3 1010.2 -
23/01:30pm 30.9 - - - - WNW 13 30 7 16 1010.8 1010.7 -
23/01:00pm 30.6 - - - - W 11 22 6 12 1011.3 1011.2 -
23/12:30pm 30.3 - - - - W 15 26 8 14 1011.9 1011.8 -
23/12:00pm 30.0 - - - - W 11 22 6 12 1012.3 1012.2 -
23/11:30am 31.5 - - - - E 9 17 5 9 1012.7 1012.6 -
23/11:00am 30.7 - - - - E 17 24 9 13 1012.9 1012.8 -
23/10:30am 30.4 - - - - E 17 30 9 16 1013.4 1013.3 -
23/10:00am 29.8 - - - - E 22 33 12 18 1013.9 1013.8 -
23/09:30am 29.6 - - - - ENE 11 24 6 13 1014.0 1013.9 -
23/09:00am 28.6 - - - - ENE 13 22 7 12 1014.1 1014.0 -
23/08:30am 28.5 - - - - ENE 11 22 6 12 1014.0 1013.9 -
23/08:00am 27.9 - - - - ENE 7 15 4 8 1013.9 1013.8 -
23/07:30am 27.4 - - - - ENE 9 17 5 9 1013.7 1013.6 -
23/07:00am 27.2 - - - - ENE 7 13 4 7 1013.3 1013.2 -
23/06:30am 26.9 - - - - ENE 6 11 3 6 1012.9 1012.8 -
23/06:00am 26.8 - - - - ENE 6 11 3 6 1012.6 1012.5 -
23/05:30am 27.0 - - - - NNE 7 11 4 6 1012.2 1012.1 -
23/05:00am 26.9 - - - - NE 6 9 3 5 1011.8 1011.7 -
23/04:30am 27.0 - - - - NNE 6 11 3 6 1011.9 1011.8 -
23/04:00am 27.0 - - - - NE 7 11 4 6 1012.0 1011.9 -
23/03:30am 27.3 - - - - NE 7 11 4 6 1012.1 1012.0 -
23/03:00am 27.4 - - - - ENE 7 13 4 7 1012.1 1012.0 -
23/02:30am 27.5 - - - - NE 9 19 5 10 1012.1 1012.0 -
23/02:00am 27.7 - - - - NE 7 15 4 8 1012.4 1012.3 -
23/01:30am 27.3 - - - - NNW 7 13 4 7 1012.3 1012.2 -
23/01:00am 27.3 - - - - NNW 11 20 6 11 1012.6 1012.5 -
23/12:30am 27.7 - - - - NNE 11 24 6 13 1012.9 1012.8 -
23/12:00am 28.5 - - - - NW 11 20 6 11 1013.3 1013.2 -
 
Date/Time
CST
Temp
°C
App
Temp
°C
Dew
Point
Rel
Hum
%
Delta-T
°C
Wind Press
QNH
hPa
Press
MSL
hPa
Rain
since 9 am
mm
Dir
 
Spd
km/h
Gust
km/h
Spd
kts
Gust
kts
22/11:30pm 28.6 - - - - NW 11 20 6 11 1013.2 1013.1 -
22/11:00pm 28.6 - - - - WNW 15 24 8 13 1013.2 1013.1 -
22/10:30pm 28.7 - - - - WNW 13 24 7 13 1013.2 1013.1 -
22/10:00pm 28.8 - - - - NW 17 26 9 14 1012.6 1012.5 -
22/09:30pm 29.0 - - - - W 13 19 7 10 1012.4 1012.3 -
22/09:00pm 29.2 - - - - W 15 19 8 10 1011.8 1011.7 -
22/08:30pm 30.6 - - - - NNE 4 6 2 3 1011.4 1011.3 -
22/08:00pm 30.4 - - - - NNE 7 11 4 6 1010.8 1010.7 -
22/07:30pm 30.8 - - - - N 6 13 3 7 1010.6 1010.5 -
22/07:00pm 30.6 - - - - N 7 15 4 8 1010.3 1010.2 -
22/06:30pm 31.1 - - - - N 9 15 5 8 1010.1 1010.0 -
22/06:00pm 30.8 - - - - NW 7 17 4 9 1009.7 1009.6 -
22/05:30pm 30.9 - - - - NW 9 19 5 10 1009.4 1009.3 -
22/05:00pm 32.0 - - - - N 9 19 5 10 1009.1 1009.0 -
22/04:30pm 31.2 - - - - N 13 24 7 13 1009.0 1008.9 -
22/04:00pm 31.7 - - - - N 13 26 7 14 1009.1 1009.0 -
22/03:30pm 31.2 - - - - N 9 24 5 13 1009.5 1009.4 -
22/03:00pm 31.3 - - - - N 11 26 6 14 1009.8 1009.7 -
22/02:30pm 31.1 - - - - NNW 15 26 8 14 1010.3 1010.2 -
22/02:00pm 30.2 - - - - NW 15 30 8 16 1010.9 1010.8 -
22/01:30pm 30.4 - - - - NW 13 24 7 13 1011.5 1011.4 -
22/01:00pm 30.6 - - - - NW 15 22 8 12 1012.1 1012.0 -
22/12:30pm 29.8 - - - - WNW 13 24 7 13 1012.8 1012.7 -
22/12:00pm 29.7 - - - - WNW 13 20 7 11 1013.2 1013.1 -
22/11:30am 28.5 - - - - W 11 15 6 8 1013.7 1013.6 -
22/11:00am 28.5 - - - - W 9 13 5 7 1014.1 1014.0 -
22/10:30am 28.1 - - - - W 6 9 3 5 1014.5 1014.4 -
22/10:00am 28.1 - - - - WSW 7 9 4 5 1014.6 1014.5 -
22/09:30am 28.3 - - - - WSW 9 13 5 7 1014.4 1014.3 -
22/09:00am 29.2 - - - - N 4 9 2 5 1014.3 1014.2 -
22/08:30am 28.9 - - - - N 4 11 2 6 1014.4 1014.3 -
22/08:00am 28.5 - - - - ENE 6 13 3 7 1013.9 1013.8 -
22/07:30am 27.7 - - - - NE 6 11 3 6 1013.7 1013.6 -
22/07:00am 27.1 - - - - N 6 7 3 4 1013.3 1013.2 -
22/06:30am 26.5 - - - - NNE 6 9 3 5 1013.3 1013.2 -
22/06:00am 26.3 - - - - N 6 13 3 7 1013.0 1012.9 -
22/05:30am 26.5 - - - - NNE 9 15 5 8 1012.9 1012.8 -
22/05:00am 26.2 - - - - NNE 9 17 5 9 1012.7 1012.6 -
22/04:30am 26.1 - - - - ENE 9 19 5 10 1012.9 1012.8 -
22/04:00am 26.6 - - - - ENE 9 17 5 9 1012.7 1012.6 -
22/03:30am 27.1 - - - - NE 6 11 3 6 1012.3 1012.2 -
22/03:00am 27.2 - - - - NNE 6 11 3 6 1012.2 1012.1 -
22/02:30am 27.2 - - - - NNE 7 15 4 8 1012.4 1012.3 -
22/02:00am 27.2 - - - - N 6 13 3 7 1012.8 1012.7 -
22/01:30am 27.6 - - - - N 6 11 3 6 1013.0 1012.9 -
22/01:00am 27.7 - - - - NNE 9 19 5 10 1013.3 1013.2 -
22/12:30am 27.9 - - - - N 9 20 5 11 1013.8 1013.7 -
22/12:00am 27.9 - - - - N 11 26 6 14 1013.9 1013.8 -
 
Date/Time
CST
Temp
°C
App
Temp
°C
Dew
Point
Rel
Hum
%
Delta-T
°C
Wind Press
QNH
hPa
Press
MSL
hPa
Rain
since 9 am
mm
Dir
 
Spd
km/h
Gust
km/h
Spd
kts
Gust
kts
21/11:30pm 28.5 - - - - NNW 11 22 6 12 1014.1 1014.0 -
21/11:00pm 28.7 - - - - W 13 24 7 13 1014.3 1014.2 -
21/10:30pm 28.8 - - - - WNW 6 7 3 4 1014.2 1014.1 -
21/10:00pm 29.0 - - - - E 9 15 5 8 1013.8 1013.7 -
21/09:30pm 29.6 - - - - N 4 7 2 4 1013.3 1013.2 -
21/09:00pm 29.7 - - - - SW 9 11 5 6 1012.7 1012.6 -
21/08:30pm 30.1 - - - - W 6 15 3 8 1012.3 1012.2 -

Other Formats:

Comma delimited format used in spreadsheet applications
http://www.bom.gov.au/fwo/IDD60801/IDD60801.95122.axf

JavaScript Object Notation format (JSON) in row-major order
http://www.bom.gov.au/fwo/IDD60801/IDD60801.95122.json